Startpagina
METAR-TAF:

METAR-TAF

Vliegvelden :

Luchthaven Svalbard Longyear

Longyearbyen, Noorwegen

breedte: 78-15N, lengte: 015-28E, hoogte: 2 m

Actueel weer

Dit bericht is 29 minuten geleden gemaakt, om 19:50 UTC
Wind 8 kt uit het oostzuidoosten
Temperatuur -8°C
Vochtigheid 57%
Druk 1011 hPa
Zicht 10 km of meer
Gebroken wolken op 2800 ft

METAR: ENSB 221950Z 11008KT 9999 BKN028 M08/M15 Q1011 RMK WIND 1400FT VRB01KT

Tijdstip: 22:19 (20:19 UTC)

Verwachting

Verwachting geldig van 22 om 18 UTC tot 23 om 18 UTC
Wind 5 kt uit het oosten
Zicht 10 km of meer
geen wolken onder 1500 m en geen cumulonimbus

TAF: ENSB 2218/2318 10005KT CAVOK

Waarnemingen en weersverwachtingen van meer dan 4000 vliegvelden (METAR en TAF).

De beschikbare stations zijn de gele en rode punten op de kaart.

Ga met uw muis naar het station om de naam te zien.

Klik dan om waarnemingen en weersverwachtingen te zien.

kaart wijzigen: klik op de groene knoppen met een zwart kruis om in te zoomen, op de groene knop met een streepje om uit te zoomen of op de groene pijlen voor aangrenzende kaarten.


METAR-TAF: